Time;durP1;ratioP1;P1;durP2;ratioP2;P2;SDS_P1;SDS_P2;PMS_P1;PMS_P2;Temp;Humidity;BMP_temperature;BMP_pressure;BME280_temperature;BME280_humidity;BME280_pressure;Samples;Min_cycle;Max_cycle;Signal;HPM_P1;HPM_P2
2021/07/20 00:02:40;;;;;;;17.70;11.50;;;15.70;99.90;;;;;;5058536;28;20409;-63
2021/07/20 00:05:09;;;;;;;15.98;10.48;;;15.70;99.90;;;;;;5053438;28;20139;-63
2021/07/20 00:07:35;;;;;;;17.40;11.68;;;15.80;99.90;;;;;;5049912;28;20045;-62
2021/07/20 00:10:01;;;;;;;17.08;10.55;;;15.80;99.90;;;;;;5046831;28;20512;-63
2021/07/20 00:12:27;;;;;;;16.98;10.07;;;15.70;99.90;;;;;;5046734;28;20485;-63
2021/07/20 00:14:53;;;;;;;18.08;10.88;;;15.80;99.90;;;;;;5061155;28;20105;-62
2021/07/20 00:17:22;;;;;;;15.90;10.85;;;15.80;99.90;;;;;;5047693;28;20049;-63
2021/07/20 00:19:49;;;;;;;17.95;11.60;;;15.80;99.90;;;;;;5057631;28;20045;-63
2021/07/20 00:22:15;;;;;;;16.05;10.70;;;15.80;99.90;;;;;;5046373;28;20045;-63
2021/07/20 00:24:40;;;;;;;16.63;10.25;;;15.80;99.90;;;;;;5048270;28;20492;-63
2021/07/20 00:27:07;;;;;;;17.33;9.95;;;15.80;99.90;;;;;;5046635;28;20141;-63
2021/07/20 00:29:32;;;;;;;17.33;11.95;;;15.80;99.90;;;;;;5046375;28;20049;-63
2021/07/20 00:31:58;;;;;;;18.77;10.43;;;15.70;99.90;;;;;;5058197;28;20059;-63
2021/07/20 00:34:24;;;;;;;18.58;10.82;;;15.70;99.90;;;;;;5049849;28;20126;-63
2021/07/20 00:36:50;;;;;;;16.10;10.32;;;15.70;99.90;;;;;;5050579;28;20463;-63
2021/07/20 00:39:16;;;;;;;17.65;10.85;;;15.70;99.90;;;;;;5048066;28;20052;-63
2021/07/20 00:41:41;;;;;;;20.33;12.75;;;15.50;99.90;;;;;;5045972;28;20042;-63
2021/07/20 00:44:08;;;;;;;16.52;10.65;;;15.50;99.90;;;;;;5046041;28;20045;-63
2021/07/20 00:46:33;;;;;;;19.38;10.90;;;15.50;99.90;;;;;;5046267;28;20057;-63
2021/07/20 00:49:07;;;;;;;17.50;11.15;;;15.50;99.90;;;;;;5046507;28;20043;-63
2021/07/20 00:51:34;;;;;;;18.30;11.32;;;15.50;99.90;;;;;;5046696;28;20064;-63
2021/07/20 00:54:00;;;;;;;19.55;11.63;;;15.50;99.90;;;;;;5046564;28;20049;-63
2021/07/20 00:56:26;;;;;;;17.00;10.43;;;15.60;99.90;;;;;;5046919;28;20508;-63
2021/07/20 00:58:52;;;;;;;15.82;10.52;;;15.60;99.90;;;;;;5045936;28;20096;-63
2021/07/20 01:01:18;;;;;;;15.40;10.68;;;15.70;99.90;;;;;;5048835;28;20048;-63
2021/07/20 01:03:45;;;;;;;17.73;11.45;;;15.70;99.90;;;;;;5050237;28;20049;-62
2021/07/20 01:06:11;;;;;;;20.17;12.45;;;15.60;99.90;;;;;;5055274;28;20071;-63
2021/07/20 01:08:40;;;;;;;15.90;10.88;;;15.50;99.90;;;;;;5046387;28;20068;-63
2021/07/20 01:11:06;;;;;;;18.30;11.05;;;15.40;99.90;;;;;;5046325;28;20048;-63
2021/07/20 01:13:32;;;;;;;16.95;10.25;;;15.30;99.90;;;;;;5046019;28;20040;-63
2021/07/20 01:15:59;;;;;;;18.65;11.68;;;15.20;99.90;;;;;;5046683;28;20051;-63
2021/07/20 01:18:25;;;;;;;16.25;10.85;;;15.10;99.90;;;;;;5051253;28;20075;-63
2021/07/20 01:20:52;;;;;;;18.00;11.63;;;15.10;99.90;;;;;;5055783;28;20183;-63
2021/07/20 01:23:35;;;;;;;20.45;11.13;;;15.10;99.90;;;;;;5045673;28;20051;-63
2021/07/20 01:26:01;;;;;;;15.48;10.52;;;15.20;99.90;;;;;;5053586;28;20059;-63
2021/07/20 01:28:29;;;;;;;15.65;9.88;;;15.30;99.90;;;;;;5045532;28;20045;-62
2021/07/20 01:31:02;;;;;;;17.00;10.18;;;15.40;99.90;;;;;;5048791;28;20102;-63
2021/07/20 01:33:31;;;;;;;16.50;9.93;;;15.40;99.90;;;;;;5047242;28;20048;-63
2021/07/20 01:36:00;;;;;;;17.92;10.35;;;15.40;99.90;;;;;;5044361;28;20045;-63
2021/07/20 01:38:27;;;;;;;17.67;10.15;;;15.50;99.90;;;;;;5062555;28;20381;-64
2021/07/20 01:40:58;;;;;;;15.82;10.20;;;15.50;99.90;;;;;;5053474;28;20504;-62
2021/07/20 01:43:26;;;;;;;14.88;9.13;;;15.50;99.90;;;;;;5045079;28;20045;-62
2021/07/20 01:45:55;;;;;;;18.50;10.25;;;15.50;99.90;;;;;;5045010;28;20132;-63
2021/07/20 01:48:24;;;;;;;14.30;9.35;;;15.50;99.90;;;;;;5045135;28;20053;-63
2021/07/20 01:50:52;;;;;;;16.48;9.68;;;15.40;99.90;;;;;;5045065;28;20048;-63
2021/07/20 01:53:20;;;;;;;15.27;9.57;;;15.30;99.90;;;;;;5044848;28;20041;-63
2021/07/20 01:55:46;;;;;;;18.23;10.40;;;15.30;99.90;;;;;;5049388;28;20037;-62
2021/07/20 01:58:12;;;;;;;14.85;10.13;;;15.30;99.90;;;;;;5045696;28;20048;-63
2021/07/20 02:00:38;;;;;;;17.63;9.73;;;15.20;99.90;;;;;;5044946;28;20045;-63
2021/07/20 02:03:26;;;;;;;15.35;10.35;;;15.20;99.90;;;;;;5057299;28;20540;-63
2021/07/20 02:08:46;;;;;;;14.13;9.48;;;15.10;99.90;;;;;;5044907;28;20076;-63
2021/07/20 02:11:17;;;;;;;16.33;9.57;;;15.00;99.90;;;;;;5045015;28;20045;-63
2021/07/20 02:13:51;;;;;;;14.80;9.40;;;15.10;99.90;;;;;;5044782;28;20049;-63
2021/07/20 02:16:19;;;;;;;15.40;9.85;;;15.10;99.90;;;;;;5044840;28;20433;-63
2021/07/20 02:18:52;;;;;;;17.10;10.13;;;15.20;99.90;;;;;;5053570;28;20045;-62
2021/07/20 02:21:20;;;;;;;15.75;9.38;;;15.30;99.90;;;;;;5044575;28;20045;-63
2021/07/20 02:23:50;;;;;;;17.50;10.32;;;15.30;99.90;;;;;;5045182;28;20061;-63
2021/07/20 02:26:16;;;;;;;14.40;9.25;;;15.40;99.90;;;;;;5045117;28;20420;-63
2021/07/20 02:28:43;;;;;;;16.27;9.70;;;15.40;99.90;;;;;;5044658;28;20075;-63
2021/07/20 02:31:11;;;;;;;12.73;8.30;;;15.40;99.90;;;;;;5049931;28;20041;-63
2021/07/20 02:33:42;;;;;;;14.32;9.02;;;15.40;99.90;;;;;;5049800;28;20050;-63
2021/07/20 02:36:08;;;;;;;14.43;8.90;;;15.40;99.90;;;;;;5045117;28;20077;-63
2021/07/20 02:38:37;;;;;;;14.95;9.48;;;15.40;99.90;;;;;;5056728;28;20049;-64
2021/07/20 02:41:04;;;;;;;13.40;8.15;;;15.40;99.90;;;;;;5044805;28;20046;-62
2021/07/20 02:43:30;;;;;;;14.70;9.23;;;15.50;99.90;;;;;;5045111;28;20045;-63
2021/07/20 02:45:57;;;;;;;14.48;9.55;;;15.50;99.90;;;;;;5044547;28;20085;-63
2021/07/20 02:48:24;;;;;;;15.02;9.85;;;15.50;99.90;;;;;;5046445;28;20183;-63
2021/07/20 02:50:51;;;;;;;14.85;8.98;;;15.50;99.90;;;;;;5048765;28;20485;-63
2021/07/20 02:53:20;;;;;;;15.52;9.90;;;15.40;99.90;;;;;;5048324;28;20076;-63
2021/07/20 02:55:49;;;;;;;15.05;9.25;;;15.30;99.90;;;;;;5053332;28;20053;-63
2021/07/20 02:58:16;;;;;;;14.38;9.35;;;15.30;99.90;;;;;;5053257;28;20112;-63
2021/07/20 03:00:42;;;;;;;15.15;9.43;;;15.30;99.90;;;;;;5048046;28;20041;-63
2021/07/20 03:03:11;;;;;;;15.02;8.70;;;15.20;99.90;;;;;;5051397;28;20052;-63
2021/07/20 03:05:45;;;;;;;15.82;9.40;;;15.20;99.90;;;;;;5061177;28;20041;-63
2021/07/20 03:08:12;;;;;;;16.15;8.57;;;15.20;99.90;;;;;;5048331;28;20046;-62
2021/07/20 03:10:39;;;;;;;13.52;9.10;;;15.20;99.90;;;;;;5048066;28;20064;-62
2021/07/20 03:13:11;;;;;;;13.43;8.57;;;15.20;99.90;;;;;;5048129;28;20045;-63
2021/07/20 03:15:38;;;;;;;13.25;9.18;;;15.30;99.90;;;;;;5048016;28;20523;-63
2021/07/20 03:18:07;;;;;;;13.00;8.93;;;15.30;99.90;;;;;;5049604;28;20082;-63
2021/07/20 03:20:36;;;;;;;14.93;9.63;;;15.30;99.90;;;;;;5059349;28;20065;-63
2021/07/20 03:23:04;;;;;;;13.23;8.50;;;15.30;99.90;;;;;;5047613;28;20065;-62
2021/07/20 03:25:30;;;;;;;13.50;8.63;;;15.30;99.90;;;;;;5054729;28;20300;-62
2021/07/20 03:27:58;;;;;;;17.23;9.23;;;15.20;99.90;;;;;;5049047;28;20061;-63
2021/07/20 03:30:29;;;;;;;14.48;8.68;;;15.20;99.90;;;;;;5048039;28;20067;-63
2021/07/20 03:32:56;;;;;;;13.73;9.43;;;15.30;99.90;;;;;;5051760;28;20045;-63
2021/07/20 03:35:23;;;;;;;17.08;9.20;;;15.30;99.90;;;;;;5055151;28;20493;-63
2021/07/20 03:37:50;;;;;;;15.13;8.60;;;15.20;99.90;;;;;;5052848;28;20515;-63
2021/07/20 03:40:16;;;;;;;14.65;8.25;;;15.20;99.90;;;;;;5057106;28;20045;-63
2021/07/20 03:42:42;;;;;;;14.55;9.63;;;15.20;99.90;;;;;;5053081;28;20053;-63
2021/07/20 03:45:09;;;;;;;12.20;8.50;;;15.20;99.90;;;;;;5048043;28;20049;-63
2021/07/20 03:47:37;;;;;;;15.75;9.50;;;15.30;99.90;;;;;;5047563;28;20049;-63
2021/07/20 03:50:05;;;;;;;14.57;9.23;;;15.20;99.90;;;;;;5047463;28;20049;-63
2021/07/20 03:52:33;;;;;;;18.15;9.93;;;15.10;99.90;;;;;;5062417;28;20049;-63
2021/07/20 03:55:00;;;;;;;14.50;8.20;;;15.10;99.90;;;;;;5057732;28;20240;-63
2021/07/20 03:57:27;;;;;;;13.60;8.27;;;15.20;99.90;;;;;;5047307;28;20056;-63
2021/07/20 03:59:58;;;;;;;13.57;8.80;;;15.20;99.90;;;;;;5048170;28;20042;-63
2021/07/20 04:02:28;;;;;;;14.10;8.88;;;15.20;99.90;;;;;;5057403;28;20044;-62
2021/07/20 04:04:58;;;;;;;12.90;8.23;;;15.20;99.90;;;;;;5050285;28;20040;-63
2021/07/20 04:07:24;;;;;;;;;;;15.20;99.90;;;;;;5050789;28;20069;-63
2021/07/20 04:09:50;;;;;;;13.02;9.15;;;15.20;99.90;;;;;;5047094;28;19944;-63
2021/07/20 04:12:18;;;;;;;14.15;8.82;;;15.10;99.90;;;;;;5047397;28;20068;-63
2021/07/20 04:14:45;;;;;;;14.35;8.80;;;15.20;99.90;;;;;;5056661;28;20037;-63
2021/07/20 04:17:15;;;;;;;13.10;8.10;;;15.20;99.90;;;;;;5050692;28;20057;-63
2021/07/20 04:19:44;;;;;;;12.27;8.23;;;15.20;99.90;;;;;;5050336;28;20037;-63
2021/07/20 04:22:12;;;;;;;12.73;8.27;;;15.30;99.90;;;;;;5060436;28;20056;-63
2021/07/20 04:24:39;;;;;;;13.43;8.23;;;15.30;99.90;;;;;;5055117;28;20092;-63
2021/07/20 04:27:05;;;;;;;14.20;8.73;;;15.30;99.90;;;;;;5051281;28;20049;-63
2021/07/20 04:29:32;;;;;;;15.48;8.60;;;15.30;99.90;;;;;;5056840;28;20064;-62
2021/07/20 04:32:03;;;;;;;12.52;8.15;;;15.30;99.90;;;;;;5060156;28;20037;-63
2021/07/20 04:34:30;;;;;;;12.63;8.60;;;15.40;99.90;;;;;;5054713;28;20056;-63
2021/07/20 04:36:57;;;;;;;14.40;8.60;;;15.40;99.90;;;;;;5050700;28;20047;-63
2021/07/20 04:39:23;;;;;;;13.23;7.88;;;15.40;99.90;;;;;;5055911;28;20045;-63
2021/07/20 04:41:49;;;;;;;13.82;8.57;;;15.50;99.90;;;;;;5046802;28;20049;-63
2021/07/20 04:44:15;;;;;;;13.93;8.77;;;15.40;99.90;;;;;;5047235;28;20049;-63
2021/07/20 04:46:46;;;;;;;15.07;8.88;;;15.40;99.90;;;;;;5046117;28;20049;-63
2021/07/20 04:49:14;;;;;;;13.00;8.25;;;15.40;99.90;;;;;;5046404;28;20109;-63
2021/07/20 04:51:42;;;;;;;13.77;8.75;;;15.40;99.90;;;;;;5047162;28;20056;-63
2021/07/20 04:54:10;;;;;;;14.23;8.85;;;15.40;99.90;;;;;;5048030;28;20052;-63
2021/07/20 04:56:36;;;;;;;11.95;8.20;;;15.40;99.90;;;;;;5046916;28;20037;-63
2021/07/20 04:59:02;;;;;;;13.23;8.57;;;15.50;99.90;;;;;;5047022;28;20101;-63
2021/07/20 05:01:29;;;;;;;10.68;7.53;;;15.50;99.90;;;;;;5049981;28;20123;-63
2021/07/20 05:03:57;;;;;;;12.38;7.13;;;15.60;99.90;;;;;;5056364;28;20053;-63
2021/07/20 05:06:25;;;;;;;13.57;8.95;;;15.60;99.90;;;;;;5054327;28;20029;-63
2021/07/20 05:08:53;;;;;;;13.02;8.02;;;15.60;99.90;;;;;;5046031;28;20053;-63
2021/07/20 05:11:20;;;;;;;11.15;7.80;;;15.70;99.90;;;;;;5046018;28;20041;-63
2021/07/20 05:13:47;;;;;;;12.77;8.30;;;15.70;99.90;;;;;;5046700;28;20050;-63
2021/07/20 05:16:13;;;;;;;13.80;8.70;;;15.80;99.90;;;;;;5045719;28;20484;-63
2021/07/20 05:18:39;;;;;;;14.10;8.50;;;15.80;99.90;;;;;;5050363;28;20044;-63
2021/07/20 05:21:05;;;;;;;12.80;8.75;;;15.80;99.90;;;;;;5049113;28;20056;-63
2021/07/20 05:23:33;;;;;;;15.73;9.10;;;15.70;99.90;;;;;;5045714;28;20041;-63
2021/07/20 05:25:59;;;;;;;12.60;8.30;;;15.70;99.90;;;;;;5048422;28;20037;-62
2021/07/20 05:28:28;;;;;;;13.50;8.35;;;15.80;99.90;;;;;;5046238;28;20101;-63
2021/07/20 05:30:59;;;;;;;12.32;7.82;;;15.80;99.90;;;;;;5045392;28;20045;-63
2021/07/20 05:33:25;;;;;;;12.18;7.43;;;15.90;99.90;;;;;;5045468;28;20099;-63
2021/07/20 05:36:00;;;;;;;12.38;7.90;;;16.00;99.90;;;;;;5048571;28;20101;-63
2021/07/20 05:38:28;;;;;;;13.27;7.97;;;16.00;99.90;;;;;;5046215;28;20046;-63
2021/07/20 05:40:57;;;;;;;11.70;7.47;;;16.10;99.90;;;;;;5045491;28;20129;-63
2021/07/20 05:43:26;;;;;;;16.05;8.18;;;16.10;99.90;;;;;;5045112;28;20049;-63
2021/07/20 05:45:59;;;;;;;13.32;7.22;;;16.10;99.90;;;;;;5044965;28;20068;-63
2021/07/20 05:48:25;;;;;;;10.68;7.55;;;16.20;99.90;;;;;;5045264;28;20049;-62
2021/07/20 05:50:53;;;;;;;11.70;8.20;;;16.10;99.90;;;;;;5045370;28;20071;-63
2021/07/20 05:53:22;;;;;;;11.77;7.75;;;16.10;99.90;;;;;;5050383;28;20128;-63
2021/07/20 05:55:51;;;;;;;11.65;7.22;;;16.20;99.90;;;;;;5060561;28;20080;-63
2021/07/20 05:58:21;;;;;;;12.38;7.50;;;16.10;99.90;;;;;;5045326;28;20052;-63
2021/07/20 06:00:50;;;;;;;11.68;7.28;;;16.10;99.90;;;;;;5046050;28;20052;-63
2021/07/20 06:03:18;;;;;;;9.55;7.35;;;16.20;99.90;;;;;;5054864;28;20057;-63
2021/07/20 06:05:44;;;;;;;11.73;6.95;;;16.30;99.90;;;;;;5050355;28;20037;-63
2021/07/20 06:08:18;;;;;;;13.15;7.80;;;16.30;99.90;;;;;;5045051;28;20069;-63
2021/07/20 06:10:55;;;;;;;12.52;7.65;;;16.40;99.90;;;;;;5044972;28;20049;-62
2021/07/20 06:13:24;;;;;;;12.73;7.35;;;16.40;99.90;;;;;;5055270;28;20083;-63
2021/07/20 06:15:52;;;;;;;10.83;6.90;;;16.30;99.90;;;;;;5047513;28;20457;-63
2021/07/20 06:18:18;;;;;;;12.43;7.10;;;16.40;99.90;;;;;;5047247;28;20045;-63
2021/07/20 06:21:07;;;;;;;12.27;7.32;;;16.40;99.90;;;;;;5048010;28;20405;-63
2021/07/20 06:23:47;;;;;;;12.65;7.85;;;16.40;99.90;;;;;;5047102;28;20042;-63
2021/07/20 06:26:21;;;;;;;13.55;7.72;;;16.50;99.90;;;;;;5049545;28;20442;-63
2021/07/20 06:28:48;;;;;;;11.90;7.70;;;16.60;99.90;;;;;;5047748;28;20054;-63
2021/07/20 06:31:18;;;;;;;11.82;7.35;;;16.70;99.90;;;;;;5054505;28;20132;-63
2021/07/20 06:33:44;;;;;;;;;;;16.80;99.90;;;;;;5054468;28;20049;-63
2021/07/20 06:36:13;;;;;;;11.60;8.07;;;16.80;99.90;;;;;;5059824;28;19921;-63
2021/07/20 06:38:39;;;;;;;12.83;8.00;;;16.80;99.90;;;;;;5060261;28;20072;-63
2021/07/20 06:41:05;;;;;;;12.57;7.43;;;16.90;99.90;;;;;;5049771;28;20501;-63
2021/07/20 06:43:32;;;;;;;12.55;7.50;;;16.90;99.90;;;;;;5049022;28;20046;-63
2021/07/20 06:45:59;;;;;;;12.13;7.75;;;17.00;99.90;;;;;;5048446;28;20104;-63
2021/07/20 06:48:26;;;;;;;11.65;7.60;;;17.00;99.90;;;;;;5049372;28;20045;-63
2021/07/20 06:50:53;;;;;;;11.32;7.95;;;17.10;99.90;;;;;;5048589;28;20041;-63
2021/07/20 06:53:20;;;;;;;10.43;7.13;;;17.00;99.90;;;;;;5052164;28;20481;-62
2021/07/20 06:55:52;;;;;;;11.13;7.43;;;17.10;99.90;;;;;;5049303;28;20529;-63
2021/07/20 06:58:24;;;;;;;8.90;6.85;;;17.10;99.90;;;;;;5048791;28;20045;-63
2021/07/20 07:00:54;;;;;;;11.20;7.32;;;17.10;99.90;;;;;;5048223;28;20068;-63
2021/07/20 07:03:24;;;;;;;12.48;6.65;;;17.20;99.90;;;;;;5050758;28;20102;-63
2021/07/20 07:05:52;;;;;;;12.20;6.78;;;17.30;99.90;;;;;;5056474;28;20044;-62
2021/07/20 07:08:19;;;;;;;10.85;7.20;;;17.30;99.90;;;;;;5050819;28;20044;-63
2021/07/20 07:10:46;;;;;;;12.10;7.80;;;17.40;99.90;;;;;;5048323;28;20037;-63
2021/07/20 07:13:12;;;;;;;12.68;7.78;;;17.50;99.90;;;;;;5048819;28;20060;-63
2021/07/20 07:15:39;;;;;;;9.95;6.90;;;17.60;99.90;;;;;;5064332;28;20037;-63
2021/07/20 07:18:06;;;;;;;8.70;6.25;;;17.70;99.90;;;;;;5049165;28;20068;-63
2021/07/20 07:20:32;;;;;;;10.15;5.88;;;17.80;99.90;;;;;;5058752;28;20094;-63
2021/07/20 07:23:01;;;;;;;8.30;6.20;;;17.90;99.90;;;;;;5061720;28;20049;-63
2021/07/20 07:25:28;;;;;;;9.50;6.25;;;18.00;99.90;;;;;;5054388;28;20049;-63
2021/07/20 07:27:55;;;;;;;8.70;6.00;;;18.00;99.90;;;;;;5047894;28;20059;-63
2021/07/20 07:30:22;;;;;;;7.53;6.20;;;18.00;99.90;;;;;;5047938;28;20052;-64
2021/07/20 07:32:49;;;;;;;8.85;6.35;;;18.00;99.90;;;;;;5051024;28;20045;-63
2021/07/20 07:35:15;;;;;;;8.90;6.32;;;18.20;99.90;;;;;;5052858;28;20063;-63
2021/07/20 07:37:43;;;;;;;7.97;5.95;;;18.30;99.90;;;;;;5060557;28;20065;-63
2021/07/20 07:40:11;;;;;;;8.75;6.10;;;18.30;99.90;;;;;;5047565;28;20045;-63
2021/07/20 07:42:38;;;;;;;7.50;5.45;;;18.40;99.90;;;;;;5047774;28;20041;-63
2021/07/20 07:45:08;;;;;;;8.68;6.47;;;18.40;99.90;;;;;;5047935;28;20245;-63
2021/07/20 07:47:36;;;;;;;7.53;5.63;;;18.40;99.90;;;;;;5048273;28;20060;-63
2021/07/20 07:50:04;;;;;;;9.32;6.05;;;18.30;99.90;;;;;;5047832;28;20113;-63
2021/07/20 07:52:30;;;;;;;7.55;5.30;;;18.30;99.90;;;;;;5047302;28;20048;-63
2021/07/20 07:54:56;;;;;;;7.88;5.53;;;18.30;99.90;;;;;;5056681;28;20454;-63
2021/07/20 07:57:22;;;;;;;9.07;5.40;;;18.30;99.90;;;;;;5048128;28;20044;-63
2021/07/20 07:59:54;;;;;;;7.78;5.18;;;18.40;99.90;;;;;;5047881;28;20042;-63
2021/07/20 08:02:24;;;;;;;8.48;5.43;;;18.40;99.90;;;;;;5055659;28;20080;-63
2021/07/20 08:04:52;;;;;;;8.65;5.45;;;18.50;99.90;;;;;;5047341;28;20109;-63
2021/07/20 08:07:19;;;;;;;6.25;5.25;;;18.50;99.90;;;;;;5059694;28;20041;-63
2021/07/20 08:09:46;;;;;;;6.13;4.88;;;18.50;99.90;;;;;;5047196;28;20033;-63
2021/07/20 08:12:14;;;;;;;6.88;5.22;;;18.50;99.90;;;;;;5047076;28;20041;-63
2021/07/20 08:14:40;;;;;;;6.03;4.45;;;18.50;99.90;;;;;;5046920;28;20156;-63
2021/07/20 08:17:06;;;;;;;7.15;4.90;;;18.40;99.90;;;;;;5047233;28;20056;-63
2021/07/20 08:19:37;;;;;;;7.13;5.28;;;18.30;99.90;;;;;;5049914;28;20053;-63
2021/07/20 08:22:07;;;;;;;6.93;5.22;;;18.30;99.90;;;;;;5046584;28;20045;-62
2021/07/20 08:24:37;;;;;;;7.07;5.00;;;18.40;99.90;;;;;;5055083;28;20037;-63
2021/07/20 08:27:13;;;;;;;7.70;5.00;;;18.40;99.90;;;;;;5050520;28;20037;-63
2021/07/20 08:29:40;;;;;;;8.00;4.97;;;18.50;99.90;;;;;;5047194;28;20049;-63
2021/07/20 08:32:13;;;;;;;5.82;4.70;;;18.50;99.90;;;;;;5055083;28;20524;-63
2021/07/20 08:34:44;;;;;;;7.88;5.05;;;18.50;99.90;;;;;;5056760;28;20101;-63
2021/07/20 08:37:11;;;;;;;7.47;4.97;;;18.60;99.90;;;;;;5047334;28;20045;-63
2021/07/20 08:39:39;;;;;;;6.70;4.80;;;18.70;99.90;;;;;;5053912;28;20053;-63
2021/07/20 08:42:20;;;;;;;8.07;4.72;;;18.70;99.90;;;;;;5047129;28;20156;-63
2021/07/20 08:45:22;;;;;;;7.18;5.32;;;18.70;99.90;;;;;;5046155;28;20095;-63
2021/07/20 08:48:07;;;;;;;7.68;4.80;;;18.70;99.90;;;;;;5052102;28;20049;-63
2021/07/20 08:51:04;;;;;;;8.52;5.60;;;18.80;99.90;;;;;;5051021;28;20046;-62
2021/07/20 08:53:53;;;;;;;7.65;4.70;;;18.90;99.90;;;;;;5052959;28;20039;-63
2021/07/20 08:56:22;;;;;;;6.00;4.60;;;19.00;99.90;;;;;;5046323;28;20050;-63
2021/07/20 08:58:54;;;;;;;6.95;4.65;;;19.10;99.90;;;;;;5059169;28;20120;-63
2021/07/20 09:01:27;;;;;;;7.55;5.10;;;19.20;99.90;;;;;;5049663;28;20052;-63
2021/07/20 09:04:36;;;;;;;11.10;6.03;;;19.30;99.90;;;;;;5049066;28;20041;-63
2021/07/20 09:07:25;;;;;;;7.05;4.88;;;19.50;99.90;;;;;;5059020;28;20053;-63
2021/07/20 09:09:57;;;;;;;6.15;4.53;;;19.70;99.90;;;;;;5046075;28;20045;-63
2021/07/20 09:12:28;;;;;;;7.28;5.38;;;19.80;99.90;;;;;;5046060;28;20068;-63
2021/07/20 09:15:04;;;;;;;8.65;5.10;;;19.80;99.90;;;;;;5046451;28;20109;-63
2021/07/20 09:18:00;;;;;;;6.80;4.95;;;19.80;99.90;;;;;;5045395;28;20079;-63
2021/07/20 09:20:31;;;;;;;7.82;5.45;;;20.00;99.90;;;;;;5046495;28;20049;-63
2021/07/20 09:23:07;;;;;;;7.70;5.82;;;20.10;99.90;;;;;;5045623;28;20049;-63
2021/07/20 09:25:52;;;;;;;21.23;5.85;;;20.10;99.90;;;;;;5054146;28;20049;-63
2021/07/20 09:28:27;;;;;;;8.35;5.30;;;20.10;99.90;;;;;;5046142;28;20049;-63
2021/07/20 09:30:54;;;;;;;8.98;5.07;;;20.00;99.90;;;;;;5049153;28;20045;-63
2021/07/20 09:33:50;;;;;;;6.03;4.72;;;20.10;99.90;;;;;;5048002;28;20042;-63
2021/07/20 09:36:47;;;;;;;6.40;4.97;;;20.00;99.90;;;;;;5045753;28;20072;-63
2021/07/20 09:39:39;;;;;;;8.43;5.10;;;20.00;99.90;;;;;;5062007;28;20047;-63
2021/07/20 09:42:25;;;;;;;6.90;5.20;;;20.10;99.90;;;;;;5045136;28;20096;-63
2021/07/20 09:45:06;;;;;;;8.07;4.78;;;20.20;99.90;;;;;;5048076;28;20053;-63
2021/07/20 09:47:56;;;;;;;7.10;4.75;;;20.30;99.90;;;;;;5045068;28;20088;-63
2021/07/20 09:50:23;;;;;;;;;;;20.40;99.90;;;;;;5045396;28;20051;-63
2021/07/20 09:53:17;;;;;;;7.95;4.78;;;20.50;99.90;;;;;;5046394;28;19929;-63
2021/07/20 09:56:05;;;;;;;8.25;5.40;;;20.50;99.90;;;;;;5051944;28;20056;-63
2021/07/20 09:58:39;;;;;;;7.03;5.05;;;20.50;99.90;;;;;;5045337;28;20041;-63
2021/07/20 10:01:10;;;;;;;7.03;5.28;;;20.60;99.90;;;;;;5046948;28;20056;-63
2021/07/20 10:03:49;;;;;;;6.32;5.13;;;20.80;99.90;;;;;;5055535;28;20042;-63
2021/07/20 10:06:38;;;;;;;7.63;5.45;;;20.90;99.90;;;;;;5047862;28;20041;-63
2021/07/20 10:09:06;;;;;;;8.48;5.32;;;21.00;99.90;;;;;;5049637;28;20137;-63
2021/07/20 10:11:52;;;;;;;6.78;5.13;;;20.90;99.90;;;;;;5045000;28;20038;-63
2021/07/20 10:14:27;;;;;;;6.97;4.95;;;21.00;99.90;;;;;;5045537;28;20049;-63
2021/07/20 10:17:21;;;;;;;6.07;5.30;;;21.10;99.90;;;;;;5058748;28;20125;-63
2021/07/20 10:19:52;;;;;;;7.18;5.28;;;21.20;99.90;;;;;;5058863;28;20080;-63
2021/07/20 10:22:27;;;;;;;6.95;4.72;;;21.40;99.90;;;;;;5046281;28;20196;-63
2021/07/20 10:25:04;;;;;;;7.22;5.00;;;21.60;99.90;;;;;;5055450;28;20045;-64
2021/07/20 10:27:45;;;;;;;6.70;4.82;;;21.70;99.90;;;;;;5044786;28;20053;-63
2021/07/20 10:30:14;;;;;;;8.18;5.47;;;21.90;99.90;;;;;;5044616;28;20046;-63
2021/07/20 10:33:17;;;;;;;7.32;5.20;;;21.90;99.90;;;;;;5052258;28;20042;-63
2021/07/20 10:36:01;;;;;;;7.25;5.43;;;21.80;99.90;;;;;;5054931;28;20041;-63
2021/07/20 10:38:37;;;;;;;8.10;5.13;;;21.90;99.90;;;;;;5049701;28;20060;-63
2021/07/20 10:41:06;;;;;;;7.95;5.35;;;21.90;99.90;;;;;;5045647;28;20072;-63
2021/07/20 10:43:39;;;;;;;7.65;5.40;;;21.70;99.90;;;;;;5045638;28;20068;-63
2021/07/20 10:46:08;;;;;;;8.18;5.47;;;21.70;99.90;;;;;;5045476;28;20057;-63
2021/07/20 10:48:41;;;;;;;8.43;5.80;;;21.50;99.90;;;;;;5044383;28;20060;-63
2021/07/20 10:51:16;;;;;;;6.82;5.32;;;21.40;99.90;;;;;;5044642;28;20046;-63
2021/07/20 10:53:42;;;;;;;7.32;5.43;;;21.30;99.90;;;;;;5045190;28;20038;-63
2021/07/20 10:56:26;;;;;;;6.32;5.10;;;21.10;99.90;;;;;;5044609;28;20045;-63
2021/07/20 10:59:18;;;;;;;6.93;5.35;;;20.90;99.90;;;;;;5044310;28;20071;-63
2021/07/20 11:02:05;;;;;;;8.25;5.93;;;20.90;99.90;;;;;;5050980;28;20061;-63
2021/07/20 11:04:59;;;;;;;10.13;5.45;;;21.10;99.90;;;;;;5048802;28;20049;-63
2021/07/20 11:07:32;;;;;;;6.30;5.05;;;21.10;99.90;;;;;;5055051;28;20072;-63
2021/07/20 11:10:06;;;;;;;7.35;5.32;;;21.20;99.90;;;;;;5045507;28;20041;-63
2021/07/20 11:12:35;;;;;;;7.78;5.72;;;21.30;99.90;;;;;;5047129;28;20057;-63
2021/07/20 11:15:03;;;;;;;7.65;5.97;;;21.50;99.90;;;;;;5060963;28;20045;-63
2021/07/20 11:17:32;;;;;;;7.15;5.10;;;21.70;99.90;;;;;;5048165;28;20052;-63
2021/07/20 11:20:01;;;;;;;7.18;4.78;;;21.90;99.90;;;;;;5056024;28;20060;-63
2021/07/20 11:22:29;;;;;;;7.60;5.72;;;22.00;99.90;;;;;;5048051;28;20045;-63
2021/07/20 11:24:55;;;;;;;6.00;4.88;;;22.10;99.90;;;;;;5050919;28;20120;-63
2021/07/20 11:27:22;;;;;;;7.03;5.38;;;22.40;99.90;;;;;;5047720;28;20041;-63
2021/07/20 11:29:49;;;;;;;7.45;4.93;;;22.60;99.90;;;;;;5047913;28;20050;-63
2021/07/20 11:32:22;;;;;;;7.90;5.65;;;22.90;99.90;;;;;;5047778;28;20054;-63
2021/07/20 11:35:14;;;;;;;8.02;5.80;;;23.00;99.90;;;;;;5049142;28;20045;-63
2021/07/20 11:37:44;;;;;;;8.70;5.68;;;23.10;99.90;;;;;;5047944;28;20045;-63
2021/07/20 11:40:13;;;;;;;6.20;4.80;;;23.10;99.90;;;;;;5051549;28;20045;-63
2021/07/20 11:42:47;;;;;;;8.02;5.30;;;23.10;99.90;;;;;;5053541;28;20068;-63
2021/07/20 11:45:14;;;;;;;7.25;5.47;;;22.90;99.90;;;;;;5053932;28;20178;-63
2021/07/20 11:48:01;;;;;;;7.38;5.43;;;22.90;99.90;;;;;;5047108;28;20238;-63
2021/07/20 11:50:46;;;;;;;8.23;5.60;;;22.60;99.90;;;;;;5047428;28;20041;-63
2021/07/20 11:53:44;;;;;;;5.97;4.80;;;22.50;99.90;;;;;;5051566;28;20045;-62
2021/07/20 11:56:27;;;;;;;6.15;4.97;;;22.30;99.90;;;;;;5047061;28;20140;-63
2021/07/20 11:58:59;;;;;;;6.80;5.22;;;22.20;99.90;;;;;;5047887;28;20052;-62
2021/07/20 12:01:55;;;;;;;8.75;4.97;;;22.10;99.90;;;;;;5052052;28;20100;-63
2021/07/20 12:05:02;;;;;;;7.30;4.95;;;22.20;99.90;;;;;;5047126;28;20101;-63
2021/07/20 12:07:33;;;;;;;7.68;5.22;;;22.00;99.90;;;;;;5055685;28;20044;-63
2021/07/20 12:10:09;;;;;;;6.53;4.95;;;22.00;99.90;;;;;;5047072;28;20045;-63
2021/07/20 12:12:52;;;;;;;7.53;5.28;;;21.90;99.90;;;;;;5047229;28;20049;-63
2021/07/20 12:15:22;;;;;;;6.93;5.18;;;21.90;99.90;;;;;;5045740;28;20053;-63
2021/07/20 12:17:49;;;;;;;6.50;5.28;;;22.00;99.90;;;;;;5047080;28;20049;-63
2021/07/20 12:20:17;;;;;;;6.53;4.50;;;22.10;99.90;;;;;;5058392;28;20048;-63
2021/07/20 12:22:51;;;;;;;5.80;4.57;;;22.30;99.90;;;;;;5047356;28;20052;-63
2021/07/20 12:25:18;;;;;;;7.22;5.40;;;22.50;99.90;;;;;;5060252;28;20074;-63
2021/07/20 12:27:46;;;;;;;8.45;5.43;;;22.60;99.90;;;;;;5054301;28;20041;-63
2021/07/20 12:30:17;;;;;;;6.85;5.28;;;22.70;99.90;;;;;;5046831;28;20041;-63
2021/07/20 12:32:43;;;;;;;7.65;5.53;;;22.70;99.90;;;;;;5050968;28;20050;-63
2021/07/20 12:35:14;;;;;;;7.50;5.43;;;22.80;99.90;;;;;;5053734;28;20068;-63
2021/07/20 12:37:40;;;;;;;7.45;5.70;;;22.80;99.90;;;;;;5046558;28;20165;-63
2021/07/20 12:40:09;;;;;;;6.15;4.50;;;22.80;99.90;;;;;;5055638;28;20041;-63
2021/07/20 12:42:37;;;;;;;7.20;4.80;;;23.00;99.90;;;;;;5046422;28;20120;-63
2021/07/20 12:45:05;;;;;;;7.20;5.18;;;23.10;99.90;;;;;;5046455;28;20064;-63
2021/07/20 12:47:57;;;;;;;6.97;4.70;;;23.10;99.90;;;;;;5046045;28;20057;-63
2021/07/20 12:50:24;;;;;;;7.10;4.78;;;23.10;99.90;;;;;;5046905;28;20054;-63
2021/07/20 12:52:51;;;;;;;6.18;4.38;;;23.10;99.90;;;;;;5050351;28;20473;-63
2021/07/20 12:55:21;;;;;;;6.45;4.55;;;23.10;99.90;;;;;;5056571;28;20052;-64
2021/07/20 12:58:10;;;;;;;5.63;4.35;;;23.20;99.90;;;;;;5044908;28;20061;-63
2021/07/20 13:00:36;;;;;;;;;;;23.40;99.90;;;;;;5047262;28;20046;-63
2021/07/20 13:03:06;;;;;;;6.40;5.03;;;23.50;99.90;;;;;;5057641;28;19956;-63
2021/07/20 13:05:33;;;;;;;5.93;5.00;;;23.70;99.90;;;;;;5045929;28;20152;-63